sensor_id;sensor_type;location;lat;lon;timestamp;P1;durP1;ratioP1;P2;durP2;ratioP2
68144;SDS011;55400;51.824;-0.196;2022-08-04T00:01:17;6.20;;;2.17;;
68144;SDS011;55400;51.824;-0.196;2022-08-04T00:04:02;5.20;;;2.13;;
68144;SDS011;55400;51.824;-0.196;2022-08-04T00:12:10;6.13;;;1.88;;
68144;SDS011;55400;51.824;-0.196;2022-08-04T00:14:51;3.25;;;1.83;;
68144;SDS011;55400;51.824;-0.196;2022-08-04T00:17:39;6.72;;;2.20;;
68144;SDS011;55400;51.824;-0.196;2022-08-04T00:20:17;4.77;;;2.00;;
68144;SDS011;55400;51.824;-0.196;2022-08-04T00:22:51;9.35;;;2.10;;
68144;SDS011;55400;51.824;-0.196;2022-08-04T00:25:19;4.80;;;1.88;;
68144;SDS011;55400;51.824;-0.196;2022-08-04T00:27:45;5.65;;;2.13;;
68144;SDS011;55400;51.824;-0.196;2022-08-04T00:30:19;4.18;;;1.98;;
68144;SDS011;55400;51.824;-0.196;2022-08-04T00:32:46;6.40;;;1.98;;
68144;SDS011;55400;51.824;-0.196;2022-08-04T00:35:13;7.57;;;1.95;;
68144;SDS011;55400;51.824;-0.196;2022-08-04T00:37:46;3.38;;;2.03;;
68144;SDS011;55400;51.824;-0.196;2022-08-04T00:40:24;6.35;;;2.00;;
68144;SDS011;55400;51.824;-0.196;2022-08-04T00:46:23;5.10;;;2.65;;
68144;SDS011;55400;51.824;-0.196;2022-08-04T00:49:02;4.45;;;1.70;;
68144;SDS011;55400;51.824;-0.196;2022-08-04T00:51:42;5.60;;;2.25;;
68144;SDS011;55400;51.824;-0.196;2022-08-04T00:54:55;5.85;;;2.63;;
68144;SDS011;55400;51.824;-0.196;2022-08-04T00:57:29;6.28;;;2.28;;
68144;SDS011;55400;51.824;-0.196;2022-08-04T01:00:13;3.63;;;2.05;;
68144;SDS011;55400;51.824;-0.196;2022-08-04T01:05:30;5.57;;;2.00;;
68144;SDS011;55400;51.824;-0.196;2022-08-04T01:08:15;5.95;;;2.28;;
68144;SDS011;55400;51.824;-0.196;2022-08-04T01:16:45;6.15;;;2.38;;
68144;SDS011;55400;51.824;-0.196;2022-08-04T01:19:33;12.00;;;2.10;;
68144;SDS011;55400;51.824;-0.196;2022-08-04T01:30:35;8.13;;;2.35;;
68144;SDS011;55400;51.824;-0.196;2022-08-04T01:33:13;4.57;;;2.13;;
68144;SDS011;55400;51.824;-0.196;2022-08-04T01:35:50;9.70;;;2.00;;
68144;SDS011;55400;51.824;-0.196;2022-08-04T01:38:33;4.15;;;1.80;;
68144;SDS011;55400;51.824;-0.196;2022-08-04T01:41:06;5.07;;;2.35;;
68144;SDS011;55400;51.824;-0.196;2022-08-04T01:43:43;7.13;;;2.07;;
68144;SDS011;55400;51.824;-0.196;2022-08-04T01:46:15;5.75;;;2.33;;
68144;SDS011;55400;51.824;-0.196;2022-08-04T01:48:51;3.88;;;2.22;;
68144;SDS011;55400;51.824;-0.196;2022-08-04T01:51:25;4.68;;;2.05;;
68144;SDS011;55400;51.824;-0.196;2022-08-04T01:53:58;6.75;;;2.47;;
68144;SDS011;55400;51.824;-0.196;2022-08-04T01:56:25;5.20;;;2.30;;
68144;SDS011;55400;51.824;-0.196;2022-08-04T01:58:56;4.82;;;2.13;;
68144;SDS011;55400;51.824;-0.196;2022-08-04T02:01:31;5.80;;;2.17;;
68144;SDS011;55400;51.824;-0.196;2022-08-04T02:04:01;7.75;;;2.40;;
68144;SDS011;55400;51.824;-0.196;2022-08-04T02:10:03;5.07;;;2.10;;
68144;SDS011;55400;51.824;-0.196;2022-08-04T02:15:30;6.03;;;2.10;;
68144;SDS011;55400;51.824;-0.196;2022-08-04T02:18:20;6.28;;;2.30;;
68144;SDS011;55400;51.824;-0.196;2022-08-04T02:21:00;7.00;;;2.17;;
68144;SDS011;55400;51.824;-0.196;2022-08-04T02:23:34;5.72;;;2.20;;
68144;SDS011;55400;51.824;-0.196;2022-08-04T02:26:18;4.82;;;2.10;;
68144;SDS011;55400;51.824;-0.196;2022-08-04T02:28:57;6.18;;;2.10;;
68144;SDS011;55400;51.824;-0.196;2022-08-04T02:31:56;6.13;;;2.17;;
68144;SDS011;55400;51.824;-0.196;2022-08-04T02:34:48;5.93;;;2.55;;
68144;SDS011;55400;51.824;-0.196;2022-08-04T02:37:47;7.70;;;2.17;;
68144;SDS011;55400;51.824;-0.196;2022-08-04T02:40:21;7.93;;;2.55;;
68144;SDS011;55400;51.824;-0.196;2022-08-04T02:42:57;10.10;;;2.20;;
68144;SDS011;55400;51.824;-0.196;2022-08-04T02:45:24;7.50;;;2.20;;
68144;SDS011;55400;51.824;-0.196;2022-08-04T02:47:52;8.07;;;2.38;;
68144;SDS011;55400;51.824;-0.196;2022-08-04T02:50:48;6.50;;;2.65;;
68144;SDS011;55400;51.824;-0.196;2022-08-04T02:53:17;5.90;;;2.22;;
68144;SDS011;55400;51.824;-0.196;2022-08-04T02:56:01;6.38;;;2.25;;
68144;SDS011;55400;51.824;-0.196;2022-08-04T02:58:30;3.37;;;2.13;;
68144;SDS011;55400;51.824;-0.196;2022-08-04T03:00:59;5.22;;;2.25;;
68144;SDS011;55400;51.824;-0.196;2022-08-04T03:03:46;6.18;;;2.40;;
68144;SDS011;55400;51.824;-0.196;2022-08-04T03:41:31;6.63;;;2.55;;
68144;SDS011;55400;51.824;-0.196;2022-08-04T03:44:41;5.20;;;2.30;;
68144;SDS011;55400;51.824;-0.196;2022-08-04T03:50:36;7.35;;;2.33;;
68144;SDS011;55400;51.824;-0.196;2022-08-04T03:54:11;6.53;;;2.63;;
68144;SDS011;55400;51.824;-0.196;2022-08-04T03:56:59;6.60;;;2.45;;
68144;SDS011;55400;51.824;-0.196;2022-08-04T04:17:34;7.05;;;2.45;;
68144;SDS011;55400;51.824;-0.196;2022-08-04T04:31:55;8.57;;;2.42;;
68144;SDS011;55400;51.824;-0.196;2022-08-04T04:46:20;5.78;;;2.65;;
68144;SDS011;55400;51.824;-0.196;2022-08-04T04:49:19;9.30;;;2.40;;
68144;SDS011;55400;51.824;-0.196;2022-08-04T04:51:59;7.30;;;2.10;;
68144;SDS011;55400;51.824;-0.196;2022-08-04T04:55:02;8.68;;;2.53;;
68144;SDS011;55400;51.824;-0.196;2022-08-04T04:57:45;4.50;;;2.08;;
68144;SDS011;55400;51.824;-0.196;2022-08-04T05:00:20;8.43;;;2.45;;
68144;SDS011;55400;51.824;-0.196;2022-08-04T05:09:06;7.82;;;2.50;;
68144;SDS011;55400;51.824;-0.196;2022-08-04T05:15:05;8.52;;;2.42;;
68144;SDS011;55400;51.824;-0.196;2022-08-04T05:17:41;6.15;;;2.47;;
68144;SDS011;55400;51.824;-0.196;2022-08-04T05:20:22;8.63;;;2.55;;
68144;SDS011;55400;51.824;-0.196;2022-08-04T05:22:55;4.15;;;2.67;;
68144;SDS011;55400;51.824;-0.196;2022-08-04T05:28:30;5.15;;;2.20;;
68144;SDS011;55400;51.824;-0.196;2022-08-04T05:31:13;7.93;;;2.60;;
68144;SDS011;55400;51.824;-0.196;2022-08-04T05:33:54;10.23;;;2.65;;
68144;SDS011;55400;51.824;-0.196;2022-08-04T05:36:35;9.15;;;2.42;;
68144;SDS011;55400;51.824;-0.196;2022-08-04T05:39:09;8.38;;;2.55;;
68144;SDS011;55400;51.824;-0.196;2022-08-04T05:41:45;9.95;;;2.45;;
68144;SDS011;55400;51.824;-0.196;2022-08-04T05:44:29;13.32;;;2.20;;
68144;SDS011;55400;51.824;-0.196;2022-08-04T05:47:05;10.02;;;2.67;;
68144;SDS011;55400;51.824;-0.196;2022-08-04T05:49:33;9.80;;;2.75;;
68144;SDS011;55400;51.824;-0.196;2022-08-04T05:52:01;9.75;;;2.85;;
68144;SDS011;55400;51.824;-0.196;2022-08-04T05:54:42;6.78;;;2.58;;
68144;SDS011;55400;51.824;-0.196;2022-08-04T05:57:16;9.98;;;3.20;;
68144;SDS011;55400;51.824;-0.196;2022-08-04T05:59:51;11.55;;;3.05;;
68144;SDS011;55400;51.824;-0.196;2022-08-04T06:02:20;9.45;;;2.95;;
68144;SDS011;55400;51.824;-0.196;2022-08-04T06:04:50;8.70;;;2.55;;
68144;SDS011;55400;51.824;-0.196;2022-08-04T06:07:24;9.73;;;2.70;;
68144;SDS011;55400;51.824;-0.196;2022-08-04T06:09:52;12.32;;;3.05;;
68144;SDS011;55400;51.824;-0.196;2022-08-04T06:12:24;16.45;;;2.97;;
68144;SDS011;55400;51.824;-0.196;2022-08-04T06:15:16;10.55;;;2.50;;
68144;SDS011;55400;51.824;-0.196;2022-08-04T06:17:52;5.63;;;2.30;;
68144;SDS011;55400;51.824;-0.196;2022-08-04T06:20:48;15.68;;;3.40;;
68144;SDS011;55400;51.824;-0.196;2022-08-04T06:23:19;7.10;;;2.80;;
68144;SDS011;55400;51.824;-0.196;2022-08-04T06:25:56;10.93;;;2.90;;
68144;SDS011;55400;51.824;-0.196;2022-08-04T06:28:26;9.40;;;2.88;;
68144;SDS011;55400;51.824;-0.196;2022-08-04T06:30:54;13.00;;;2.92;;
68144;SDS011;55400;51.824;-0.196;2022-08-04T06:33:54;11.07;;;3.22;;
68144;SDS011;55400;51.824;-0.196;2022-08-04T06:36:21;16.38;;;2.97;;
68144;SDS011;55400;51.824;-0.196;2022-08-04T06:38:56;13.85;;;2.55;;
68144;SDS011;55400;51.824;-0.196;2022-08-04T06:41:25;11.48;;;2.55;;
68144;SDS011;55400;51.824;-0.196;2022-08-04T06:43:55;11.80;;;2.80;;
68144;SDS011;55400;51.824;-0.196;2022-08-04T06:49:02;11.00;;;2.80;;
68144;SDS011;55400;51.824;-0.196;2022-08-04T06:51:30;11.10;;;3.17;;
68144;SDS011;55400;51.824;-0.196;2022-08-04T06:54:21;8.85;;;2.50;;
68144;SDS011;55400;51.824;-0.196;2022-08-04T06:57:01;11.73;;;3.17;;
68144;SDS011;55400;51.824;-0.196;2022-08-04T06:59:35;16.33;;;3.15;;
68144;SDS011;55400;51.824;-0.196;2022-08-04T07:02:02;9.05;;;2.70;;
68144;SDS011;55400;51.824;-0.196;2022-08-04T07:04:29;13.35;;;2.80;;
68144;SDS011;55400;51.824;-0.196;2022-08-04T07:07:02;8.13;;;2.53;;
68144;SDS011;55400;51.824;-0.196;2022-08-04T07:09:29;11.75;;;2.75;;
68144;SDS011;55400;51.824;-0.196;2022-08-04T07:11:57;10.20;;;2.33;;
68144;SDS011;55400;51.824;-0.196;2022-08-04T07:14:31;8.73;;;2.33;;
68144;SDS011;55400;51.824;-0.196;2022-08-04T07:17:05;6.45;;;1.85;;
68144;SDS011;55400;51.824;-0.196;2022-08-04T07:19:40;6.40;;;1.88;;
68144;SDS011;55400;51.824;-0.196;2022-08-04T07:22:09;9.48;;;2.47;;
68144;SDS011;55400;51.824;-0.196;2022-08-04T07:24:53;11.48;;;2.33;;
68144;SDS011;55400;51.824;-0.196;2022-08-04T07:27:29;7.22;;;2.65;;
68144;SDS011;55400;51.824;-0.196;2022-08-04T07:30:13;6.38;;;2.22;;
68144;SDS011;55400;51.824;-0.196;2022-08-04T07:32:50;6.57;;;2.50;;
68144;SDS011;55400;51.824;-0.196;2022-08-04T07:35:17;6.63;;;2.20;;
68144;SDS011;55400;51.824;-0.196;2022-08-04T07:38:04;9.88;;;2.53;;
68144;SDS011;55400;51.824;-0.196;2022-08-04T07:40:41;8.13;;;2.38;;
68144;SDS011;55400;51.824;-0.196;2022-08-04T07:43:08;10.82;;;2.75;;
68144;SDS011;55400;51.824;-0.196;2022-08-04T07:45:35;6.35;;;2.40;;
68144;SDS011;55400;51.824;-0.196;2022-08-04T07:48:09;7.13;;;2.22;;
68144;SDS011;55400;51.824;-0.196;2022-08-04T07:50:36;11.95;;;2.42;;
68144;SDS011;55400;51.824;-0.196;2022-08-04T07:53:12;6.18;;;2.30;;
68144;SDS011;55400;51.824;-0.196;2022-08-04T07:56:13;13.98;;;2.60;;
68144;SDS011;55400;51.824;-0.196;2022-08-04T07:58:41;8.68;;;2.22;;
68144;SDS011;55400;51.824;-0.196;2022-08-04T08:01:15;5.53;;;1.90;;
68144;SDS011;55400;51.824;-0.196;2022-08-04T08:03:42;9.27;;;2.17;;
68144;SDS011;55400;51.824;-0.196;2022-08-04T08:06:09;7.57;;;2.10;;
68144;SDS011;55400;51.824;-0.196;2022-08-04T08:09:00;7.40;;;2.08;;
68144;SDS011;55400;51.824;-0.196;2022-08-04T08:11:40;6.82;;;1.85;;
68144;SDS011;55400;51.824;-0.196;2022-08-04T08:14:35;3.63;;;1.70;;
68144;SDS011;55400;51.824;-0.196;2022-08-04T08:17:02;7.10;;;2.00;;
68144;SDS011;55400;51.824;-0.196;2022-08-04T08:19:36;4.93;;;2.13;;
68144;SDS011;55400;51.824;-0.196;2022-08-04T08:22:03;6.80;;;2.25;;
68144;SDS011;55400;51.824;-0.196;2022-08-04T08:24:32;4.32;;;1.73;;
68144;SDS011;55400;51.824;-0.196;2022-08-04T08:27:07;6.27;;;1.60;;
68144;SDS011;55400;51.824;-0.196;2022-08-04T08:29:35;7.18;;;1.88;;
68144;SDS011;55400;51.824;-0.196;2022-08-04T08:32:04;5.85;;;1.95;;
68144;SDS011;55400;51.824;-0.196;2022-08-04T08:34:41;4.35;;;1.90;;
68144;SDS011;55400;51.824;-0.196;2022-08-04T08:58:42;8.20;;;2.25;;
68144;SDS011;55400;51.824;-0.196;2022-08-04T09:10:44;7.32;;;2.25;;
68144;SDS011;55400;51.824;-0.196;2022-08-04T09:13:03;5.32;;;1.95;;
68144;SDS011;55400;51.824;-0.196;2022-08-04T09:16:01;8.15;;;2.35;;
68144;SDS011;55400;51.824;-0.196;2022-08-04T09:18:46;7.35;;;1.83;;
68144;SDS011;55400;51.824;-0.196;2022-08-04T09:22:08;8.57;;;2.03;;
68144;SDS011;55400;51.824;-0.196;2022-08-04T09:24:46;4.75;;;1.90;;
68144;SDS011;55400;51.824;-0.196;2022-08-04T09:30:20;6.97;;;1.80;;
68144;SDS011;55400;51.824;-0.196;2022-08-04T09:35:58;10.50;;;2.00;;
68144;SDS011;55400;51.824;-0.196;2022-08-04T09:41:39;8.57;;;1.98;;
68144;SDS011;55400;51.824;-0.196;2022-08-04T09:44:24;6.82;;;1.75;;
68144;SDS011;55400;51.824;-0.196;2022-08-04T10:03:48;3.53;;;1.42;;
68144;SDS011;55400;51.824;-0.196;2022-08-04T10:35:08;4.30;;;1.45;;
68144;SDS011;55400;51.824;-0.196;2022-08-04T10:40:39;2.67;;;1.13;;
68144;SDS011;55400;51.824;-0.196;2022-08-04T10:46:16;5.30;;;1.45;;
68144;SDS011;55400;51.824;-0.196;2022-08-04T10:48:55;4.43;;;1.00;;
68144;SDS011;55400;51.824;-0.196;2022-08-04T10:51:41;3.53;;;1.20;;
68144;SDS011;55400;51.824;-0.196;2022-08-04T10:54:36;2.53;;;1.25;;
68144;SDS011;55400;51.824;-0.196;2022-08-04T11:00:17;4.35;;;1.35;;
68144;SDS011;55400;51.824;-0.196;2022-08-04T11:08:35;3.80;;;1.35;;
68144;SDS011;55400;51.824;-0.196;2022-08-04T11:13:46;2.63;;;1.20;;
68144;SDS011;55400;51.824;-0.196;2022-08-04T11:16:35;4.75;;;1.60;;
68144;SDS011;55400;51.824;-0.196;2022-08-04T11:19:45;4.50;;;1.25;;
68144;SDS011;55400;51.824;-0.196;2022-08-04T11:31:04;6.38;;;1.40;;
68144;SDS011;55400;51.824;-0.196;2022-08-04T11:40:06;1.92;;;1.50;;
68144;SDS011;55400;51.824;-0.196;2022-08-04T11:42:24;4.95;;;2.40;;
68144;SDS011;55400;51.824;-0.196;2022-08-04T11:45:15;2.70;;;1.80;;
68144;SDS011;55400;51.824;-0.196;2022-08-04T11:47:56;4.15;;;2.10;;
68144;SDS011;55400;51.824;-0.196;2022-08-04T11:50:38;3.95;;;1.83;;
68144;SDS011;55400;51.824;-0.196;2022-08-04T11:53:09;5.10;;;2.97;;
68144;SDS011;55400;51.824;-0.196;2022-08-04T11:55:57;5.20;;;2.60;;
68144;SDS011;55400;51.824;-0.196;2022-08-04T11:58:35;4.90;;;2.50;;
68144;SDS011;55400;51.824;-0.196;2022-08-04T12:04:09;2.35;;;1.80;;
68144;SDS011;55400;51.824;-0.196;2022-08-04T12:07:13;2.90;;;1.73;;
68144;SDS011;55400;51.824;-0.196;2022-08-04T12:10:11;6.40;;;1.85;;
68144;SDS011;55400;51.824;-0.196;2022-08-04T12:13:23;3.28;;;1.73;;
68144;SDS011;55400;51.824;-0.196;2022-08-04T12:19:03;4.68;;;1.30;;
68144;SDS011;55400;51.824;-0.196;2022-08-04T12:21:52;3.25;;;1.30;;
68144;SDS011;55400;51.824;-0.196;2022-08-04T12:27:16;5.57;;;1.42;;
68144;SDS011;55400;51.824;-0.196;2022-08-04T12:29:56;4.78;;;1.00;;
68144;SDS011;55400;51.824;-0.196;2022-08-04T12:32:51;3.08;;;0.93;;
68144;SDS011;55400;51.824;-0.196;2022-08-04T12:35:39;6.45;;;1.58;;
68144;SDS011;55400;51.824;-0.196;2022-08-04T12:38:32;1.83;;;1.33;;
68144;SDS011;55400;51.824;-0.196;2022-08-04T12:41:06;3.97;;;1.17;;
68144;SDS011;55400;51.824;-0.196;2022-08-04T12:43:38;2.38;;;1.33;;
68144;SDS011;55400;51.824;-0.196;2022-08-04T12:46:23;2.13;;;1.20;;
68144;SDS011;55400;51.824;-0.196;2022-08-04T12:48:52;2.55;;;1.02;;
68144;SDS011;55400;51.824;-0.196;2022-08-04T12:51:42;3.88;;;1.15;;
68144;SDS011;55400;51.824;-0.196;2022-08-04T12:54:36;2.83;;;1.20;;
68144;SDS011;55400;51.824;-0.196;2022-08-04T12:57:17;2.03;;;0.90;;
68144;SDS011;55400;51.824;-0.196;2022-08-04T12:59:47;5.50;;;1.38;;
68144;SDS011;55400;51.824;-0.196;2022-08-04T13:02:25;3.78;;;1.10;;
68144;SDS011;55400;51.824;-0.196;2022-08-04T13:05:03;1.60;;;0.90;;
68144;SDS011;55400;51.824;-0.196;2022-08-04T13:07:36;2.33;;;0.98;;
68144;SDS011;55400;51.824;-0.196;2022-08-04T13:10:14;3.30;;;1.35;;
68144;SDS011;55400;51.824;-0.196;2022-08-04T13:12:49;3.00;;;1.10;;
68144;SDS011;55400;51.824;-0.196;2022-08-04T13:15:26;11.93;;;1.30;;
68144;SDS011;55400;51.824;-0.196;2022-08-04T13:17:58;4.15;;;1.20;;
68144;SDS011;55400;51.824;-0.196;2022-08-04T13:20:55;5.28;;;1.38;;
68144;SDS011;55400;51.824;-0.196;2022-08-04T13:23:46;2.70;;;1.05;;
68144;SDS011;55400;51.824;-0.196;2022-08-04T13:26:36;4.95;;;1.40;;
68144;SDS011;55400;51.824;-0.196;2022-08-04T13:29:21;2.40;;;1.50;;
68144;SDS011;55400;51.824;-0.196;2022-08-04T13:32:17;5.32;;;1.20;;
68144;SDS011;55400;51.824;-0.196;2022-08-04T13:34:48;4.60;;;1.17;;
68144;SDS011;55400;51.824;-0.196;2022-08-04T13:37:24;5.80;;;1.30;;
68144;SDS011;55400;51.824;-0.196;2022-08-04T13:39:55;7.55;;;1.30;;
68144;SDS011;55400;51.824;-0.196;2022-08-04T13:42:31;3.38;;;1.05;;
68144;SDS011;55400;51.824;-0.196;2022-08-04T13:45:01;6.22;;;1.65;;
68144;SDS011;55400;51.824;-0.196;2022-08-04T13:47:38;3.38;;;1.15;;
68144;SDS011;55400;51.824;-0.196;2022-08-04T13:52:45;3.60;;;0.98;;
68144;SDS011;55400;51.824;-0.196;2022-08-04T13:58:12;2.85;;;1.30;;
68144;SDS011;55400;51.824;-0.196;2022-08-04T14:04:03;6.15;;;1.52;;
68144;SDS011;55400;51.824;-0.196;2022-08-04T14:06:54;5.85;;;1.30;;
68144;SDS011;55400;51.824;-0.196;2022-08-04T14:09:46;4.13;;;1.00;;
68144;SDS011;55400;51.824;-0.196;2022-08-04T14:12:35;8.45;;;1.63;;
68144;SDS011;55400;51.824;-0.196;2022-08-04T14:15:29;4.50;;;1.20;;
68144;SDS011;55400;51.824;-0.196;2022-08-04T14:18:20;6.85;;;1.60;;
68144;SDS011;55400;51.824;-0.196;2022-08-04T14:23:43;5.15;;;1.48;;
68144;SDS011;55400;51.824;-0.196;2022-08-04T14:32:01;3.55;;;1.27;;
68144;SDS011;55400;51.824;-0.196;2022-08-04T14:34:38;3.72;;;1.20;;
68144;SDS011;55400;51.824;-0.196;2022-08-04T14:37:16;2.90;;;1.50;;
68144;SDS011;55400;51.824;-0.196;2022-08-04T14:39:50;3.30;;;1.50;;
68144;SDS011;55400;51.824;-0.196;2022-08-04T14:42:45;5.07;;;1.33;;
68144;SDS011;55400;51.824;-0.196;2022-08-04T14:48:19;6.65;;;1.25;;
68144;SDS011;55400;51.824;-0.196;2022-08-04T14:50:47;7.78;;;1.10;;
68144;SDS011;55400;51.824;-0.196;2022-08-04T14:53:23;2.90;;;1.05;;
68144;SDS011;55400;51.824;-0.196;2022-08-04T14:55:58;1.45;;;0.95;;
68144;SDS011;55400;51.824;-0.196;2022-08-04T14:59:00;1.10;;;1.00;;
68144;SDS011;55400;51.824;-0.196;2022-08-04T15:01:29;4.85;;;1.05;;
68144;SDS011;55400;51.824;-0.196;2022-08-04T15:04:04;1.90;;;1.30;;
68144;SDS011;55400;51.824;-0.196;2022-08-04T15:06:32;5.93;;;1.67;;
68144;SDS011;55400;51.824;-0.196;2022-08-04T15:11:43;2.53;;;1.13;;
68144;SDS011;55400;51.824;-0.196;2022-08-04T15:14:09;3.00;;;1.20;;
68144;SDS011;55400;51.824;-0.196;2022-08-04T15:17:03;2.05;;;0.90;;
68144;SDS011;55400;51.824;-0.196;2022-08-04T15:19:37;5.15;;;1.10;;
68144;SDS011;55400;51.824;-0.196;2022-08-04T15:22:21;2.33;;;1.25;;
68144;SDS011;55400;51.824;-0.196;2022-08-04T15:24:47;1.17;;;0.65;;
68144;SDS011;55400;51.824;-0.196;2022-08-04T15:27:26;2.20;;;1.27;;
68144;SDS011;55400;51.824;-0.196;2022-08-04T15:29:58;7.28;;;1.25;;
68144;SDS011;55400;51.824;-0.196;2022-08-04T15:32:37;6.15;;;1.15;;
68144;SDS011;55400;51.824;-0.196;2022-08-04T15:35:10;4.07;;;1.17;;
68144;SDS011;55400;51.824;-0.196;2022-08-04T15:38:08;4.40;;;1.05;;
68144;SDS011;55400;51.824;-0.196;2022-08-04T15:49:18;1.90;;;1.45;;
68144;SDS011;55400;51.824;-0.196;2022-08-04T15:51:58;4.18;;;1.10;;
68144;SDS011;55400;51.824;-0.196;2022-08-04T15:54:44;4.38;;;1.00;;
68144;SDS011;55400;51.824;-0.196;2022-08-04T16:08:59;2.40;;;0.88;;
68144;SDS011;55400;51.824;-0.196;2022-08-04T16:14:08;3.40;;;1.00;;
68144;SDS011;55400;51.824;-0.196;2022-08-04T16:22:01;2.63;;;1.10;;
68144;SDS011;55400;51.824;-0.196;2022-08-04T16:24:33;1.30;;;0.90;;
68144;SDS011;55400;51.824;-0.196;2022-08-04T16:27:08;2.50;;;1.10;;
68144;SDS011;55400;51.824;-0.196;2022-08-04T16:29:40;3.67;;;0.98;;
68144;SDS011;55400;51.824;-0.196;2022-08-04T16:32:15;3.38;;;0.85;;
68144;SDS011;55400;51.824;-0.196;2022-08-04T16:35:03;7.07;;;1.33;;
68144;SDS011;55400;51.824;-0.196;2022-08-04T16:37:36;2.30;;;0.90;;
68144;SDS011;55400;51.824;-0.196;2022-08-04T16:40:31;10.10;;;1.00;;
68144;SDS011;55400;51.824;-0.196;2022-08-04T16:43:04;5.38;;;1.25;;
68144;SDS011;55400;51.824;-0.196;2022-08-04T16:45:45;5.93;;;1.45;;
68144;SDS011;55400;51.824;-0.196;2022-08-04T16:48:21;4.95;;;1.30;;
68144;SDS011;55400;51.824;-0.196;2022-08-04T16:53:32;2.17;;;1.15;;
68144;SDS011;55400;51.824;-0.196;2022-08-04T16:56:36;3.47;;;0.80;;
68144;SDS011;55400;51.824;-0.196;2022-08-04T16:59:16;4.40;;;1.60;;
68144;SDS011;55400;51.824;-0.196;2022-08-04T17:01:50;3.40;;;1.00;;
68144;SDS011;55400;51.824;-0.196;2022-08-04T17:04:31;7.75;;;1.20;;
68144;SDS011;55400;51.824;-0.196;2022-08-04T17:07:06;3.63;;;1.08;;
68144;SDS011;55400;51.824;-0.196;2022-08-04T17:09:33;3.78;;;0.88;;
68144;SDS011;55400;51.824;-0.196;2022-08-04T17:12:00;6.00;;;1.02;;
68144;SDS011;55400;51.824;-0.196;2022-08-04T17:14:34;4.43;;;1.30;;
68144;SDS011;55400;51.824;-0.196;2022-08-04T17:17:02;4.20;;;0.73;;
68144;SDS011;55400;51.824;-0.196;2022-08-04T17:19:34;4.28;;;1.15;;
68144;SDS011;55400;51.824;-0.196;2022-08-04T17:22:07;4.88;;;1.00;;
68144;SDS011;55400;51.824;-0.196;2022-08-04T17:27:04;3.90;;;0.90;;
68144;SDS011;55400;51.824;-0.196;2022-08-04T17:29:58;1.95;;;0.88;;
68144;SDS011;55400;51.824;-0.196;2022-08-04T17:32:33;2.10;;;0.90;;
68144;SDS011;55400;51.824;-0.196;2022-08-04T17:35:06;4.32;;;1.02;;
68144;SDS011;55400;51.824;-0.196;2022-08-04T17:37:34;5.18;;;1.23;;
68144;SDS011;55400;51.824;-0.196;2022-08-04T17:40:18;2.92;;;0.93;;
68144;SDS011;55400;51.824;-0.196;2022-08-04T17:43:04;3.30;;;1.25;;
68144;SDS011;55400;51.824;-0.196;2022-08-04T17:51:57;7.00;;;0.93;;
68144;SDS011;55400;51.824;-0.196;2022-08-04T17:54:43;1.50;;;0.95;;
68144;SDS011;55400;51.824;-0.196;2022-08-04T17:57:29;3.97;;;1.08;;
68144;SDS011;55400;51.824;-0.196;2022-08-04T17:59:56;1.15;;;0.70;;
68144;SDS011;55400;51.824;-0.196;2022-08-04T18:02:32;2.80;;;1.10;;
68144;SDS011;55400;51.824;-0.196;2022-08-04T18:07:47;2.97;;;0.70;;
68144;SDS011;55400;51.824;-0.196;2022-08-04T18:10:49;2.22;;;0.77;;
68144;SDS011;55400;51.824;-0.196;2022-08-04T18:13:29;2.80;;;1.20;;
68144;SDS011;55400;51.824;-0.196;2022-08-04T18:16:08;3.35;;;1.20;;
68144;SDS011;55400;51.824;-0.196;2022-08-04T18:19:10;2.92;;;0.90;;
68144;SDS011;55400;51.824;-0.196;2022-08-04T18:21:45;4.72;;;1.38;;
68144;SDS011;55400;51.824;-0.196;2022-08-04T18:24:29;0.93;;;0.93;;
68144;SDS011;55400;51.824;-0.196;2022-08-04T18:27:23;4.20;;;1.38;;
68144;SDS011;55400;51.824;-0.196;2022-08-04T18:29:55;1.77;;;1.05;;
68144;SDS011;55400;51.824;-0.196;2022-08-04T18:32:49;3.03;;;1.63;;
68144;SDS011;55400;51.824;-0.196;2022-08-04T18:35:39;8.52;;;1.20;;
68144;SDS011;55400;51.824;-0.196;2022-08-04T18:38:32;2.03;;;0.98;;
68144;SDS011;55400;51.824;-0.196;2022-08-04T18:40:59;3.72;;;0.82;;
68144;SDS011;55400;51.824;-0.196;2022-08-04T18:43:34;4.43;;;1.55;;
68144;SDS011;55400;51.824;-0.196;2022-08-04T18:46:06;3.85;;;0.98;;
68144;SDS011;55400;51.824;-0.196;2022-08-04T18:48:41;3.33;;;1.10;;
68144;SDS011;55400;51.824;-0.196;2022-08-04T18:51:28;8.13;;;1.23;;
68144;SDS011;55400;51.824;-0.196;2022-08-04T18:54:02;6.82;;;1.27;;
68144;SDS011;55400;51.824;-0.196;2022-08-04T18:56:37;1.38;;;0.82;;
68144;SDS011;55400;51.824;-0.196;2022-08-04T18:59:37;1.17;;;1.08;;
68144;SDS011;55400;51.824;-0.196;2022-08-04T19:02:11;6.55;;;1.00;;
68144;SDS011;55400;51.824;-0.196;2022-08-04T19:04:51;2.50;;;1.27;;
68144;SDS011;55400;51.824;-0.196;2022-08-04T19:07:18;4.57;;;1.15;;
68144;SDS011;55400;51.824;-0.196;2022-08-04T19:09:55;6.43;;;1.20;;
68144;SDS011;55400;51.824;-0.196;2022-08-04T19:12:29;7.50;;;1.30;;
68144;SDS011;55400;51.824;-0.196;2022-08-04T19:14:57;6.57;;;1.10;;
68144;SDS011;55400;51.824;-0.196;2022-08-04T19:17:36;2.97;;;0.90;;
68144;SDS011;55400;51.824;-0.196;2022-08-04T19:20:22;4.72;;;0.98;;
68144;SDS011;55400;51.824;-0.196;2022-08-04T19:22:52;3.05;;;0.90;;
68144;SDS011;55400;51.824;-0.196;2022-08-04T19:25:45;5.57;;;1.13;;
68144;SDS011;55400;51.824;-0.196;2022-08-04T19:28:33;3.78;;;0.80;;
68144;SDS011;55400;51.824;-0.196;2022-08-04T19:31:12;2.88;;;1.00;;
68144;SDS011;55400;51.824;-0.196;2022-08-04T19:33:44;1.67;;;0.82;;
68144;SDS011;55400;51.824;-0.196;2022-08-04T19:36:29;1.77;;;0.73;;
68144;SDS011;55400;51.824;-0.196;2022-08-04T19:38:58;3.83;;;1.33;;
68144;SDS011;55400;51.824;-0.196;2022-08-04T19:41:36;5.22;;;1.15;;
68144;SDS011;55400;51.824;-0.196;2022-08-04T19:44:23;3.58;;;1.13;;
68144;SDS011;55400;51.824;-0.196;2022-08-04T19:46:57;4.38;;;1.00;;
68144;SDS011;55400;51.824;-0.196;2022-08-04T19:49:27;4.43;;;0.70;;
68144;SDS011;55400;51.824;-0.196;2022-08-04T19:52:14;5.25;;;1.10;;
68144;SDS011;55400;51.824;-0.196;2022-08-04T19:55:06;3.22;;;1.13;;
68144;SDS011;55400;51.824;-0.196;2022-08-04T19:57:48;2.67;;;1.13;;
68144;SDS011;55400;51.824;-0.196;2022-08-04T20:00:27;2.65;;;1.17;;
68144;SDS011;55400;51.824;-0.196;2022-08-04T20:03:00;4.97;;;1.15;;
68144;SDS011;55400;51.824;-0.196;2022-08-04T20:05:37;4.82;;;1.10;;
68144;SDS011;55400;51.824;-0.196;2022-08-04T20:08:20;3.92;;;1.35;;
68144;SDS011;55400;51.824;-0.196;2022-08-04T20:11:00;6.18;;;0.82;;
68144;SDS011;55400;51.824;-0.196;2022-08-04T20:13:26;8.55;;;1.30;;
68144;SDS011;55400;51.824;-0.196;2022-08-04T20:16:03;3.45;;;1.65;;
68144;SDS011;55400;51.824;-0.196;2022-08-04T20:18:55;3.55;;;0.90;;
68144;SDS011;55400;51.824;-0.196;2022-08-04T20:21:29;4.85;;;1.13;;
68144;SDS011;55400;51.824;-0.196;2022-08-04T20:24:25;6.10;;;1.42;;
68144;SDS011;55400;51.824;-0.196;2022-08-04T20:27:07;3.75;;;1.05;;
68144;SDS011;55400;51.824;-0.196;2022-08-04T20:29:45;5.65;;;1.13;;
68144;SDS011;55400;51.824;-0.196;2022-08-04T20:32:18;1.00;;;0.88;;
68144;SDS011;55400;51.824;-0.196;2022-08-04T20:34:54;4.93;;;1.60;;
68144;SDS011;55400;51.824;-0.196;2022-08-04T20:37:22;3.28;;;1.10;;
68144;SDS011;55400;51.824;-0.196;2022-08-04T20:40:10;3.60;;;1.10;;
68144;SDS011;55400;51.824;-0.196;2022-08-04T20:42:44;3.97;;;1.00;;
68144;SDS011;55400;51.824;-0.196;2022-08-04T20:45:13;3.70;;;1.35;;
68144;SDS011;55400;51.824;-0.196;2022-08-04T20:47:41;2.83;;;0.68;;
68144;SDS011;55400;51.824;-0.196;2022-08-04T20:50:18;3.08;;;0.80;;
68144;SDS011;55400;51.824;-0.196;2022-08-04T20:52:55;3.70;;;1.00;;
68144;SDS011;55400;51.824;-0.196;2022-08-04T20:55:48;6.28;;;1.23;;
68144;SDS011;55400;51.824;-0.196;2022-08-04T20:58:31;2.13;;;0.70;;
68144;SDS011;55400;51.824;-0.196;2022-08-04T21:01:05;3.17;;;1.10;;